LOWL/LNZ METAR and TAF weather

Enter ICAO airport designator
Station Type Date Time Source
LOWL METAR 2019/06/26 05:50 UTC NOAA

LOWL 260550Z VRB01KT CAVOK 23/18 Q1024 NOSIG


Station Type Date Time Source
LOWL Decoded METAR 2019/06/26 05:50 UTC NOAA

Linz / Hoersching-Flughafen, Austria (LOWL) 48-14N 014-11E 313M
Jun 26, 2019 - 01:50 AM EDT / 2019.06.26 0550 UTC
Wind: Variable at 1 MPH (1 KT):0
Visibility: greater than 7 mile(s):0
Temperature: 73 F (23 C)
Dew Point: 64 F (18 C)
Relative Humidity: 73%
Pressure (altimeter): 30.24 in. Hg (1024 hPa)
ob: LOWL 260550Z VRB01KT CAVOK 23/18 Q1024 NOSIG
cycle: 6

Station Type Date Time Source
LOWL TAF 2019/06/26 06:21 UTC NOAA

TAF LOWL 260515Z 2606/2706 VRB02KT CAVOK TX36/2615Z TN21/2704Z
BECMG 2612/2614 28005KT

Example: see airport list